sensor_id;sensor_type;location;lat;lon;timestamp;P1;durP1;ratioP1;P2;durP2;ratioP2
71095;SDS011;58753;49.440;11.126;2024-03-08T00:01:52;15.27;;;4.15;;
71095;SDS011;58753;49.440;11.126;2024-03-08T00:04:18;9.47;;;3.93;;
71095;SDS011;58753;49.440;11.126;2024-03-08T00:06:43;16.07;;;5.33;;
71095;SDS011;58753;49.440;11.126;2024-03-08T00:09:11;8.45;;;4.63;;
71095;SDS011;58753;49.440;11.126;2024-03-08T00:11:37;11.90;;;5.00;;
71095;SDS011;58753;49.440;11.126;2024-03-08T00:14:02;8.73;;;3.80;;
71095;SDS011;58753;49.440;11.126;2024-03-08T00:16:31;17.20;;;3.67;;
71095;SDS011;58753;49.440;11.126;2024-03-08T00:18:58;11.80;;;5.85;;
71095;SDS011;58753;49.440;11.126;2024-03-08T00:21:23;16.33;;;5.87;;
71095;SDS011;58753;49.440;11.126;2024-03-08T00:23:49;8.75;;;4.25;;
71095;SDS011;58753;49.440;11.126;2024-03-08T00:26:14;13.83;;;6.23;;
71095;SDS011;58753;49.440;11.126;2024-03-08T00:28:40;11.93;;;4.60;;
71095;SDS011;58753;49.440;11.126;2024-03-08T00:31:05;21.02;;;4.95;;
71095;SDS011;58753;49.440;11.126;2024-03-08T00:33:32;11.43;;;5.23;;
71095;SDS011;58753;49.440;11.126;2024-03-08T00:35:57;11.77;;;5.60;;
71095;SDS011;58753;49.440;11.126;2024-03-08T00:38:23;7.78;;;4.45;;
71095;SDS011;58753;49.440;11.126;2024-03-08T00:40:51;9.50;;;4.50;;
71095;SDS011;58753;49.440;11.126;2024-03-08T00:43:17;7.32;;;4.20;;
71095;SDS011;58753;49.440;11.126;2024-03-08T00:45:42;9.50;;;3.67;;
71095;SDS011;58753;49.440;11.126;2024-03-08T00:48:08;9.90;;;5.07;;
71095;SDS011;58753;49.440;11.126;2024-03-08T00:50:34;10.65;;;6.05;;
71095;SDS011;58753;49.440;11.126;2024-03-08T00:52:59;7.23;;;3.60;;
71095;SDS011;58753;49.440;11.126;2024-03-08T00:55:25;7.83;;;3.30;;
71095;SDS011;58753;49.440;11.126;2024-03-08T00:57:51;10.55;;;5.32;;
71095;SDS011;58753;49.440;11.126;2024-03-08T01:00:18;8.40;;;3.55;;
71095;SDS011;58753;49.440;11.126;2024-03-08T01:02:45;9.95;;;4.38;;
71095;SDS011;58753;49.440;11.126;2024-03-08T01:05:10;7.90;;;4.60;;
71095;SDS011;58753;49.440;11.126;2024-03-08T01:07:36;15.00;;;5.23;;
71095;SDS011;58753;49.440;11.126;2024-03-08T01:10:04;11.37;;;4.10;;
71095;SDS011;58753;49.440;11.126;2024-03-08T01:12:36;13.20;;;5.90;;
71095;SDS011;58753;49.440;11.126;2024-03-08T01:15:01;14.10;;;4.63;;
71095;SDS011;58753;49.440;11.126;2024-03-08T01:17:27;16.10;;;5.27;;
71095;SDS011;58753;49.440;11.126;2024-03-08T01:19:52;9.97;;;4.53;;
71095;SDS011;58753;49.440;11.126;2024-03-08T01:22:18;11.73;;;5.80;;
71095;SDS011;58753;49.440;11.126;2024-03-08T01:24:44;13.15;;;4.72;;
71095;SDS011;58753;49.440;11.126;2024-03-08T01:27:10;17.88;;;7.18;;
71095;SDS011;58753;49.440;11.126;2024-03-08T01:29:37;10.70;;;4.67;;
71095;SDS011;58753;49.440;11.126;2024-03-08T01:32:03;12.65;;;6.60;;
71095;SDS011;58753;49.440;11.126;2024-03-08T01:34:29;12.20;;;6.50;;
71095;SDS011;58753;49.440;11.126;2024-03-08T01:36:54;15.88;;;6.03;;
71095;SDS011;58753;49.440;11.126;2024-03-08T01:39:21;9.18;;;5.28;;
71095;SDS011;58753;49.440;11.126;2024-03-08T01:41:47;11.53;;;5.13;;
71095;SDS011;58753;49.440;11.126;2024-03-08T01:44:12;12.93;;;5.18;;
71095;SDS011;58753;49.440;11.126;2024-03-08T01:46:42;11.47;;;5.57;;
71095;SDS011;58753;49.440;11.126;2024-03-08T01:49:09;11.27;;;5.32;;
71095;SDS011;58753;49.440;11.126;2024-03-08T01:51:35;9.88;;;4.35;;
71095;SDS011;58753;49.440;11.126;2024-03-08T01:54:00;11.97;;;5.07;;
71095;SDS011;58753;49.440;11.126;2024-03-08T01:56:28;12.20;;;5.82;;
71095;SDS011;58753;49.440;11.126;2024-03-08T01:58:56;9.63;;;5.07;;
71095;SDS011;58753;49.440;11.126;2024-03-08T02:01:23;15.20;;;5.63;;
71095;SDS011;58753;49.440;11.126;2024-03-08T02:03:49;11.95;;;5.13;;
71095;SDS011;58753;49.440;11.126;2024-03-08T02:06:14;11.83;;;5.90;;
71095;SDS011;58753;49.440;11.126;2024-03-08T02:08:44;11.50;;;5.65;;
71095;SDS011;58753;49.440;11.126;2024-03-08T02:11:11;8.07;;;4.07;;
71095;SDS011;58753;49.440;11.126;2024-03-08T02:13:37;12.60;;;5.07;;
71095;SDS011;58753;49.440;11.126;2024-03-08T02:16:02;9.47;;;3.93;;
71095;SDS011;58753;49.440;11.126;2024-03-08T02:18:29;10.02;;;5.20;;
71095;SDS011;58753;49.440;11.126;2024-03-08T02:20:56;14.80;;;5.15;;
71095;SDS011;58753;49.440;11.126;2024-03-08T02:23:23;11.63;;;4.53;;
71095;SDS011;58753;49.440;11.126;2024-03-08T02:25:53;9.95;;;3.63;;
71095;SDS011;58753;49.440;11.126;2024-03-08T02:28:19;10.95;;;4.63;;
71095;SDS011;58753;49.440;11.126;2024-03-08T02:30:45;12.80;;;5.00;;
71095;SDS011;58753;49.440;11.126;2024-03-08T02:33:15;9.13;;;5.63;;
71095;SDS011;58753;49.440;11.126;2024-03-08T02:35:42;11.63;;;5.60;;
71095;SDS011;58753;49.440;11.126;2024-03-08T02:38:11;13.80;;;4.90;;
71095;SDS011;58753;49.440;11.126;2024-03-08T02:40:38;10.75;;;4.90;;
71095;SDS011;58753;49.440;11.126;2024-03-08T02:43:03;12.17;;;4.63;;
71095;SDS011;58753;49.440;11.126;2024-03-08T02:45:30;11.57;;;4.82;;
71095;SDS011;58753;49.440;11.126;2024-03-08T02:47:55;11.70;;;3.92;;
71095;SDS011;58753;49.440;11.126;2024-03-08T02:50:21;8.83;;;4.70;;
71095;SDS011;58753;49.440;11.126;2024-03-08T02:52:47;9.00;;;3.85;;
71095;SDS011;58753;49.440;11.126;2024-03-08T02:55:13;9.73;;;5.20;;
71095;SDS011;58753;49.440;11.126;2024-03-08T02:57:41;12.27;;;5.25;;
71095;SDS011;58753;49.440;11.126;2024-03-08T03:00:08;8.10;;;4.05;;
71095;SDS011;58753;49.440;11.126;2024-03-08T03:02:34;19.60;;;4.82;;
71095;SDS011;58753;49.440;11.126;2024-03-08T03:05:00;12.80;;;6.40;;
71095;SDS011;58753;49.440;11.126;2024-03-08T03:07:30;16.27;;;5.90;;
71095;SDS011;58753;49.440;11.126;2024-03-08T03:09:56;12.02;;;4.85;;
71095;SDS011;58753;49.440;11.126;2024-03-08T03:12:21;11.80;;;5.63;;
71095;SDS011;58753;49.440;11.126;2024-03-08T03:14:47;9.07;;;4.60;;
71095;SDS011;58753;49.440;11.126;2024-03-08T03:17:13;12.43;;;5.47;;
71095;SDS011;58753;49.440;11.126;2024-03-08T03:19:40;12.60;;;5.80;;
71095;SDS011;58753;49.440;11.126;2024-03-08T03:22:07;11.98;;;5.55;;
71095;SDS011;58753;49.440;11.126;2024-03-08T03:24:34;13.48;;;5.38;;
71095;SDS011;58753;49.440;11.126;2024-03-08T03:27:03;14.88;;;5.45;;
71095;SDS011;58753;49.440;11.126;2024-03-08T03:29:35;10.80;;;3.78;;
71095;SDS011;58753;49.440;11.126;2024-03-08T03:32:01;8.37;;;4.90;;
71095;SDS011;58753;49.440;11.126;2024-03-08T03:34:28;10.25;;;5.47;;
71095;SDS011;58753;49.440;11.126;2024-03-08T03:36:54;9.93;;;4.63;;
71095;SDS011;58753;49.440;11.126;2024-03-08T03:39:20;9.00;;;5.30;;
71095;SDS011;58753;49.440;11.126;2024-03-08T03:41:47;15.55;;;5.95;;
71095;SDS011;58753;49.440;11.126;2024-03-08T03:44:17;9.40;;;4.43;;
71095;SDS011;58753;49.440;11.126;2024-03-08T03:46:43;13.82;;;6.38;;
71095;SDS011;58753;49.440;11.126;2024-03-08T03:49:11;10.97;;;5.50;;
71095;SDS011;58753;49.440;11.126;2024-03-08T03:51:37;11.98;;;5.50;;
71095;SDS011;58753;49.440;11.126;2024-03-08T03:54:03;15.02;;;5.32;;
71095;SDS011;58753;49.440;11.126;2024-03-08T03:56:28;9.70;;;4.83;;
71095;SDS011;58753;49.440;11.126;2024-03-08T03:58:55;14.32;;;5.85;;
71095;SDS011;58753;49.440;11.126;2024-03-08T04:01:21;9.53;;;4.20;;
71095;SDS011;58753;49.440;11.126;2024-03-08T04:03:46;5.50;;;3.83;;
71095;SDS011;58753;49.440;11.126;2024-03-08T04:06:12;12.53;;;5.20;;
71095;SDS011;58753;49.440;11.126;2024-03-08T04:08:37;8.37;;;4.67;;
71095;SDS011;58753;49.440;11.126;2024-03-08T04:11:03;11.38;;;4.85;;
71095;SDS011;58753;49.440;11.126;2024-03-08T04:13:28;13.50;;;6.07;;
71095;SDS011;58753;49.440;11.126;2024-03-08T04:15:54;10.97;;;4.87;;
71095;SDS011;58753;49.440;11.126;2024-03-08T04:18:20;13.88;;;6.63;;
71095;SDS011;58753;49.440;11.126;2024-03-08T04:20:45;8.57;;;3.70;;
71095;SDS011;58753;49.440;11.126;2024-03-08T04:23:10;15.17;;;5.77;;
71095;SDS011;58753;49.440;11.126;2024-03-08T04:25:36;8.60;;;5.90;;
71095;SDS011;58753;49.440;11.126;2024-03-08T04:28:01;10.82;;;5.30;;
71095;SDS011;58753;49.440;11.126;2024-03-08T04:30:27;14.73;;;5.93;;
71095;SDS011;58753;49.440;11.126;2024-03-08T04:32:53;10.02;;;4.72;;
71095;SDS011;58753;49.440;11.126;2024-03-08T04:35:19;10.93;;;4.77;;
71095;SDS011;58753;49.440;11.126;2024-03-08T04:37:45;9.95;;;4.70;;
71095;SDS011;58753;49.440;11.126;2024-03-08T04:40:11;13.03;;;5.57;;
71095;SDS011;58753;49.440;11.126;2024-03-08T04:42:36;14.18;;;5.07;;
71095;SDS011;58753;49.440;11.126;2024-03-08T04:45:04;10.07;;;4.63;;
71095;SDS011;58753;49.440;11.126;2024-03-08T04:47:30;23.55;;;5.50;;
71095;SDS011;58753;49.440;11.126;2024-03-08T04:49:55;14.10;;;5.05;;
71095;SDS011;58753;49.440;11.126;2024-03-08T04:52:22;9.02;;;4.40;;
71095;SDS011;58753;49.440;11.126;2024-03-08T04:54:47;15.80;;;6.10;;
71095;SDS011;58753;49.440;11.126;2024-03-08T04:57:13;12.50;;;5.57;;
71095;SDS011;58753;49.440;11.126;2024-03-08T04:59:38;17.35;;;6.53;;
71095;SDS011;58753;49.440;11.126;2024-03-08T05:02:04;12.68;;;5.43;;
71095;SDS011;58753;49.440;11.126;2024-03-08T05:04:32;13.67;;;5.23;;
71095;SDS011;58753;49.440;11.126;2024-03-08T05:06:57;14.68;;;5.65;;
71095;SDS011;58753;49.440;11.126;2024-03-08T05:09:26;6.25;;;3.78;;
71095;SDS011;58753;49.440;11.126;2024-03-08T05:11:54;10.07;;;3.83;;
71095;SDS011;58753;49.440;11.126;2024-03-08T05:14:19;15.82;;;4.30;;
71095;SDS011;58753;49.440;11.126;2024-03-08T05:16:46;12.43;;;5.33;;
71095;SDS011;58753;49.440;11.126;2024-03-08T05:19:15;10.50;;;6.05;;
71095;SDS011;58753;49.440;11.126;2024-03-08T05:21:44;9.55;;;5.05;;
71095;SDS011;58753;49.440;11.126;2024-03-08T05:24:11;12.75;;;6.47;;
71095;SDS011;58753;49.440;11.126;2024-03-08T05:26:38;11.85;;;4.95;;
71095;SDS011;58753;49.440;11.126;2024-03-08T05:29:04;7.77;;;5.00;;
71095;SDS011;58753;49.440;11.126;2024-03-08T05:31:31;8.55;;;4.35;;
71095;SDS011;58753;49.440;11.126;2024-03-08T05:34:07;6.90;;;4.43;;
71095;SDS011;58753;49.440;11.126;2024-03-08T05:36:35;13.27;;;4.70;;
71095;SDS011;58753;49.440;11.126;2024-03-08T05:39:00;7.50;;;4.47;;
71095;SDS011;58753;49.440;11.126;2024-03-08T05:41:26;14.87;;;6.27;;
71095;SDS011;58753;49.440;11.126;2024-03-08T05:43:51;11.77;;;5.57;;
71095;SDS011;58753;49.440;11.126;2024-03-08T05:46:16;12.37;;;4.90;;
71095;SDS011;58753;49.440;11.126;2024-03-08T05:48:43;9.82;;;5.72;;
71095;SDS011;58753;49.440;11.126;2024-03-08T05:51:09;16.00;;;5.13;;
71095;SDS011;58753;49.440;11.126;2024-03-08T05:53:34;15.40;;;7.00;;
71095;SDS011;58753;49.440;11.126;2024-03-08T05:55:59;11.17;;;6.87;;
71095;SDS011;58753;49.440;11.126;2024-03-08T05:58:27;9.30;;;5.00;;
71095;SDS011;58753;49.440;11.126;2024-03-08T06:00:55;9.27;;;4.65;;
71095;SDS011;58753;49.440;11.126;2024-03-08T06:03:20;10.90;;;7.03;;
71095;SDS011;58753;49.440;11.126;2024-03-08T06:05:47;13.80;;;5.60;;
71095;SDS011;58753;49.440;11.126;2024-03-08T06:08:13;10.83;;;6.30;;
71095;SDS011;58753;49.440;11.126;2024-03-08T06:10:39;11.43;;;5.88;;
71095;SDS011;58753;49.440;11.126;2024-03-08T06:13:05;14.70;;;7.23;;
71095;SDS011;58753;49.440;11.126;2024-03-08T06:15:31;13.77;;;6.53;;
71095;SDS011;58753;49.440;11.126;2024-03-08T06:17:57;8.10;;;4.57;;
71095;SDS011;58753;49.440;11.126;2024-03-08T06:20:22;12.77;;;6.67;;
71095;SDS011;58753;49.440;11.126;2024-03-08T06:22:51;12.23;;;4.32;;
71095;SDS011;58753;49.440;11.126;2024-03-08T06:25:17;11.47;;;6.27;;
71095;SDS011;58753;49.440;11.126;2024-03-08T06:27:42;11.30;;;6.20;;
71095;SDS011;58753;49.440;11.126;2024-03-08T06:30:08;13.87;;;6.57;;
71095;SDS011;58753;49.440;11.126;2024-03-08T06:32:38;15.30;;;7.18;;
71095;SDS011;58753;49.440;11.126;2024-03-08T06:35:04;15.55;;;5.93;;
71095;SDS011;58753;49.440;11.126;2024-03-08T06:37:31;9.93;;;5.70;;
71095;SDS011;58753;49.440;11.126;2024-03-08T06:39:57;12.57;;;6.10;;
71095;SDS011;58753;49.440;11.126;2024-03-08T06:42:23;14.17;;;7.87;;
71095;SDS011;58753;49.440;11.126;2024-03-08T06:44:48;9.80;;;6.43;;
71095;SDS011;58753;49.440;11.126;2024-03-08T06:47:17;18.75;;;6.78;;
71095;SDS011;58753;49.440;11.126;2024-03-08T06:49:43;22.55;;;7.55;;
71095;SDS011;58753;49.440;11.126;2024-03-08T06:52:09;19.70;;;6.73;;
71095;SDS011;58753;49.440;11.126;2024-03-08T06:54:35;14.55;;;7.15;;
71095;SDS011;58753;49.440;11.126;2024-03-08T06:57:01;15.82;;;6.60;;
71095;SDS011;58753;49.440;11.126;2024-03-08T06:59:30;13.27;;;6.35;;
71095;SDS011;58753;49.440;11.126;2024-03-08T07:01:56;12.03;;;6.13;;
71095;SDS011;58753;49.440;11.126;2024-03-08T07:04:21;10.00;;;5.30;;
71095;SDS011;58753;49.440;11.126;2024-03-08T07:06:51;15.00;;;6.65;;
71095;SDS011;58753;49.440;11.126;2024-03-08T07:09:16;11.83;;;6.47;;
71095;SDS011;58753;49.440;11.126;2024-03-08T07:11:42;12.37;;;5.97;;
71095;SDS011;58753;49.440;11.126;2024-03-08T07:14:08;11.00;;;6.40;;
71095;SDS011;58753;49.440;11.126;2024-03-08T07:16:34;17.73;;;7.60;;
71095;SDS011;58753;49.440;11.126;2024-03-08T07:19:00;18.52;;;7.20;;
71095;SDS011;58753;49.440;11.126;2024-03-08T07:21:26;13.00;;;6.45;;
71095;SDS011;58753;49.440;11.126;2024-03-08T07:23:52;24.57;;;7.73;;
71095;SDS011;58753;49.440;11.126;2024-03-08T07:26:26;12.93;;;7.50;;
71095;SDS011;58753;49.440;11.126;2024-03-08T07:28:52;21.38;;;7.82;;
71095;SDS011;58753;49.440;11.126;2024-03-08T07:31:20;15.68;;;5.82;;
71095;SDS011;58753;49.440;11.126;2024-03-08T07:34:00;18.60;;;6.87;;
71095;SDS011;58753;49.440;11.126;2024-03-08T07:36:25;15.32;;;6.68;;
71095;SDS011;58753;49.440;11.126;2024-03-08T07:38:51;20.63;;;7.80;;
71095;SDS011;58753;49.440;11.126;2024-03-08T07:41:16;16.50;;;6.23;;
71095;SDS011;58753;49.440;11.126;2024-03-08T07:43:41;19.67;;;9.03;;
71095;SDS011;58753;49.440;11.126;2024-03-08T07:46:07;11.50;;;5.60;;
71095;SDS011;58753;49.440;11.126;2024-03-08T07:48:35;15.50;;;5.70;;
71095;SDS011;58753;49.440;11.126;2024-03-08T07:51:01;22.67;;;8.13;;
71095;SDS011;58753;49.440;11.126;2024-03-08T07:53:28;14.77;;;6.45;;
71095;SDS011;58753;49.440;11.126;2024-03-08T07:55:53;13.43;;;7.37;;
71095;SDS011;58753;49.440;11.126;2024-03-08T07:58:19;15.87;;;6.13;;
71095;SDS011;58753;49.440;11.126;2024-03-08T08:00:44;14.15;;;6.07;;
71095;SDS011;58753;49.440;11.126;2024-03-08T08:03:10;14.37;;;6.67;;
71095;SDS011;58753;49.440;11.126;2024-03-08T08:05:35;13.80;;;7.43;;
71095;SDS011;58753;49.440;11.126;2024-03-08T08:08:03;12.18;;;6.55;;
71095;SDS011;58753;49.440;11.126;2024-03-08T08:10:31;14.75;;;6.72;;
71095;SDS011;58753;49.440;11.126;2024-03-08T08:12:58;15.13;;;6.57;;
71095;SDS011;58753;49.440;11.126;2024-03-08T08:15:23;13.40;;;4.93;;
71095;SDS011;58753;49.440;11.126;2024-03-08T08:17:49;20.95;;;7.20;;
71095;SDS011;58753;49.440;11.126;2024-03-08T08:20:15;15.77;;;6.97;;
71095;SDS011;58753;49.440;11.126;2024-03-08T08:22:40;21.45;;;6.20;;
71095;SDS011;58753;49.440;11.126;2024-03-08T08:25:10;16.77;;;6.20;;
71095;SDS011;58753;49.440;11.126;2024-03-08T08:27:40;12.67;;;7.53;;
71095;SDS011;58753;49.440;11.126;2024-03-08T08:30:07;17.48;;;6.53;;
71095;SDS011;58753;49.440;11.126;2024-03-08T08:32:34;10.15;;;5.35;;
71095;SDS011;58753;49.440;11.126;2024-03-08T08:35:01;10.98;;;5.90;;
71095;SDS011;58753;49.440;11.126;2024-03-08T08:37:27;16.58;;;6.50;;
71095;SDS011;58753;49.440;11.126;2024-03-08T08:39:53;14.00;;;5.43;;
71095;SDS011;58753;49.440;11.126;2024-03-08T08:42:19;15.52;;;5.63;;
71095;SDS011;58753;49.440;11.126;2024-03-08T08:44:44;14.27;;;6.77;;
71095;SDS011;58753;49.440;11.126;2024-03-08T08:47:11;10.07;;;4.88;;
71095;SDS011;58753;49.440;11.126;2024-03-08T08:49:38;11.02;;;4.80;;
71095;SDS011;58753;49.440;11.126;2024-03-08T08:52:03;13.37;;;5.73;;
71095;SDS011;58753;49.440;11.126;2024-03-08T08:54:29;10.77;;;4.47;;
71095;SDS011;58753;49.440;11.126;2024-03-08T08:56:54;13.03;;;6.27;;
71095;SDS011;58753;49.440;11.126;2024-03-08T08:59:20;15.93;;;5.63;;
71095;SDS011;58753;49.440;11.126;2024-03-08T09:01:46;14.23;;;4.20;;
71095;SDS011;58753;49.440;11.126;2024-03-08T09:04:15;13.40;;;5.23;;
71095;SDS011;58753;49.440;11.126;2024-03-08T09:06:41;10.80;;;4.93;;
71095;SDS011;58753;49.440;11.126;2024-03-08T09:09:07;13.23;;;5.53;;
71095;SDS011;58753;49.440;11.126;2024-03-08T09:11:38;12.02;;;3.92;;
71095;SDS011;58753;49.440;11.126;2024-03-08T09:14:07;8.87;;;4.60;;
71095;SDS011;58753;49.440;11.126;2024-03-08T09:16:33;9.52;;;3.80;;
71095;SDS011;58753;49.440;11.126;2024-03-08T09:18:59;11.77;;;5.05;;
71095;SDS011;58753;49.440;11.126;2024-03-08T09:21:25;9.50;;;4.80;;
71095;SDS011;58753;49.440;11.126;2024-03-08T09:23:52;11.85;;;4.20;;
71095;SDS011;58753;49.440;11.126;2024-03-08T09:26:18;10.57;;;4.13;;
71095;SDS011;58753;49.440;11.126;2024-03-08T09:28:43;9.25;;;2.28;;
71095;SDS011;58753;49.440;11.126;2024-03-08T09:31:10;10.65;;;3.97;;
71095;SDS011;58753;49.440;11.126;2024-03-08T09:33:36;9.93;;;4.17;;
71095;SDS011;58753;49.440;11.126;2024-03-08T09:36:02;14.73;;;4.70;;
71095;SDS011;58753;49.440;11.126;2024-03-08T09:38:29;10.63;;;4.93;;
71095;SDS011;58753;49.440;11.126;2024-03-08T09:40:54;8.17;;;4.90;;
71095;SDS011;58753;49.440;11.126;2024-03-08T09:43:21;7.28;;;3.80;;
71095;SDS011;58753;49.440;11.126;2024-03-08T09:45:49;8.23;;;5.05;;
71095;SDS011;58753;49.440;11.126;2024-03-08T09:48:14;9.20;;;4.07;;
71095;SDS011;58753;49.440;11.126;2024-03-08T09:50:42;12.60;;;4.88;;
71095;SDS011;58753;49.440;11.126;2024-03-08T09:53:08;9.55;;;4.32;;
71095;SDS011;58753;49.440;11.126;2024-03-08T09:55:37;6.65;;;4.30;;
71095;SDS011;58753;49.440;11.126;2024-03-08T09:58:07;7.43;;;3.57;;
71095;SDS011;58753;49.440;11.126;2024-03-08T10:01:01;10.95;;;4.45;;
71095;SDS011;58753;49.440;11.126;2024-03-08T10:03:29;7.43;;;3.72;;
71095;SDS011;58753;49.440;11.126;2024-03-08T10:05:58;14.35;;;5.32;;
71095;SDS011;58753;49.440;11.126;2024-03-08T10:08:26;10.47;;;4.73;;
71095;SDS011;58753;49.440;11.126;2024-03-08T10:10:54;9.05;;;4.47;;
71095;SDS011;58753;49.440;11.126;2024-03-08T10:13:20;15.35;;;5.75;;
71095;SDS011;58753;49.440;11.126;2024-03-08T10:15:46;7.73;;;3.77;;
71095;SDS011;58753;49.440;11.126;2024-03-08T10:18:11;8.60;;;3.78;;
71095;SDS011;58753;49.440;11.126;2024-03-08T10:20:37;11.10;;;3.83;;
71095;SDS011;58753;49.440;11.126;2024-03-08T10:23:03;11.00;;;4.20;;
71095;SDS011;58753;49.440;11.126;2024-03-08T10:25:33;7.40;;;3.97;;
71095;SDS011;58753;49.440;11.126;2024-03-08T10:27:59;10.93;;;3.65;;
71095;SDS011;58753;49.440;11.126;2024-03-08T10:30:24;9.73;;;4.30;;
71095;SDS011;58753;49.440;11.126;2024-03-08T10:32:50;7.40;;;3.08;;
71095;SDS011;58753;49.440;11.126;2024-03-08T10:35:16;15.57;;;4.03;;
71095;SDS011;58753;49.440;11.126;2024-03-08T10:37:46;7.67;;;3.17;;
71095;SDS011;58753;49.440;11.126;2024-03-08T10:40:15;9.00;;;4.88;;
71095;SDS011;58753;49.440;11.126;2024-03-08T10:42:52;7.93;;;3.17;;
71095;SDS011;58753;49.440;11.126;2024-03-08T10:45:34;8.25;;;3.45;;
71095;SDS011;58753;49.440;11.126;2024-03-08T10:50:41;9.05;;;3.70;;
71095;SDS011;58753;49.440;11.126;2024-03-08T10:53:11;9.20;;;4.03;;
71095;SDS011;58753;49.440;11.126;2024-03-08T10:55:39;5.80;;;2.80;;
71095;SDS011;58753;49.440;11.126;2024-03-08T10:58:06;8.88;;;3.72;;
71095;SDS011;58753;49.440;11.126;2024-03-08T11:00:33;6.63;;;2.77;;
71095;SDS011;58753;49.440;11.126;2024-03-08T11:03:00;10.15;;;4.65;;
71095;SDS011;58753;49.440;11.126;2024-03-08T11:08:19;7.77;;;3.00;;
71095;SDS011;58753;49.440;11.126;2024-03-08T11:16:01;4.85;;;2.58;;
71095;SDS011;58753;49.440;11.126;2024-03-08T11:18:32;6.35;;;2.75;;
71095;SDS011;58753;49.440;11.126;2024-03-08T11:21:01;7.10;;;3.20;;
71095;SDS011;58753;49.440;11.126;2024-03-08T11:23:31;7.95;;;3.10;;
71095;SDS011;58753;49.440;11.126;2024-03-08T11:25:58;7.00;;;4.13;;
71095;SDS011;58753;49.440;11.126;2024-03-08T11:28:24;7.00;;;3.28;;
71095;SDS011;58753;49.440;11.126;2024-03-08T11:33:30;8.43;;;3.60;;
71095;SDS011;58753;49.440;11.126;2024-03-08T11:36:03;6.28;;;3.53;;
71095;SDS011;58753;49.440;11.126;2024-03-08T11:38:44;7.30;;;3.83;;
71095;SDS011;58753;49.440;11.126;2024-03-08T11:41:14;6.43;;;3.72;;
71095;SDS011;58753;49.440;11.126;2024-03-08T11:43:43;6.00;;;2.83;;
71095;SDS011;58753;49.440;11.126;2024-03-08T11:46:09;7.88;;;3.65;;
71095;SDS011;58753;49.440;11.126;2024-03-08T11:48:37;7.15;;;3.95;;
71095;SDS011;58753;49.440;11.126;2024-03-08T11:51:04;6.55;;;3.67;;
71095;SDS011;58753;49.440;11.126;2024-03-08T11:53:30;7.82;;;3.72;;
71095;SDS011;58753;49.440;11.126;2024-03-08T11:58:35;7.85;;;4.45;;
71095;SDS011;58753;49.440;11.126;2024-03-08T12:01:07;7.72;;;4.50;;
71095;SDS011;58753;49.440;11.126;2024-03-08T12:03:40;8.57;;;4.07;;
71095;SDS011;58753;49.440;11.126;2024-03-08T12:06:09;6.47;;;3.70;;
71095;SDS011;58753;49.440;11.126;2024-03-08T12:08:35;6.03;;;3.53;;
71095;SDS011;58753;49.440;11.126;2024-03-08T12:11:03;5.78;;;3.30;;
71095;SDS011;58753;49.440;11.126;2024-03-08T12:13:30;6.15;;;3.60;;
71095;SDS011;58753;49.440;11.126;2024-03-08T12:15:57;6.72;;;3.80;;
71095;SDS011;58753;49.440;11.126;2024-03-08T12:18:27;7.13;;;4.03;;
71095;SDS011;58753;49.440;11.126;2024-03-08T12:21:05;7.57;;;4.47;;
71095;SDS011;58753;49.440;11.126;2024-03-08T12:23:45;5.87;;;3.10;;
71095;SDS011;58753;49.440;11.126;2024-03-08T12:26:12;5.67;;;3.47;;
71095;SDS011;58753;49.440;11.126;2024-03-08T12:28:42;6.93;;;3.80;;
71095;SDS011;58753;49.440;11.126;2024-03-08T12:31:18;7.43;;;4.30;;
71095;SDS011;58753;49.440;11.126;2024-03-08T12:33:48;5.87;;;3.37;;
71095;SDS011;58753;49.440;11.126;2024-03-08T12:36:14;5.73;;;3.53;;
71095;SDS011;58753;49.440;11.126;2024-03-08T12:38:43;7.03;;;3.45;;
71095;SDS011;58753;49.440;11.126;2024-03-08T12:41:12;6.53;;;2.97;;
71095;SDS011;58753;49.440;11.126;2024-03-08T12:43:38;7.13;;;4.40;;
71095;SDS011;58753;49.440;11.126;2024-03-08T12:46:04;5.83;;;3.07;;
71095;SDS011;58753;49.440;11.126;2024-03-08T12:48:33;5.90;;;3.45;;
71095;SDS011;58753;49.440;11.126;2024-03-08T12:51:00;6.82;;;3.22;;
71095;SDS011;58753;49.440;11.126;2024-03-08T12:53:26;5.70;;;3.87;;
71095;SDS011;58753;49.440;11.126;2024-03-08T12:55:54;6.85;;;3.70;;
71095;SDS011;58753;49.440;11.126;2024-03-08T12:58:21;7.95;;;3.05;;
71095;SDS011;58753;49.440;11.126;2024-03-08T13:00:47;6.67;;;3.03;;
71095;SDS011;58753;49.440;11.126;2024-03-08T13:03:14;5.55;;;3.15;;
71095;SDS011;58753;49.440;11.126;2024-03-08T13:05:39;6.68;;;2.95;;
71095;SDS011;58753;49.440;11.126;2024-03-08T13:08:06;5.63;;;3.03;;
71095;SDS011;58753;49.440;11.126;2024-03-08T13:10:41;5.80;;;3.42;;
71095;SDS011;58753;49.440;11.126;2024-03-08T13:13:10;5.60;;;3.42;;
71095;SDS011;58753;49.440;11.126;2024-03-08T13:15:36;5.28;;;3.45;;
71095;SDS011;58753;49.440;11.126;2024-03-08T13:18:02;5.80;;;3.00;;
71095;SDS011;58753;49.440;11.126;2024-03-08T13:20:28;5.38;;;2.90;;
71095;SDS011;58753;49.440;11.126;2024-03-08T13:22:54;6.22;;;3.45;;
71095;SDS011;58753;49.440;11.126;2024-03-08T13:25:20;6.07;;;3.08;;
71095;SDS011;58753;49.440;11.126;2024-03-08T13:27:46;6.30;;;3.27;;
71095;SDS011;58753;49.440;11.126;2024-03-08T13:30:12;6.20;;;3.25;;
71095;SDS011;58753;49.440;11.126;2024-03-08T13:32:42;5.82;;;3.70;;
71095;SDS011;58753;49.440;11.126;2024-03-08T13:35:08;8.10;;;3.25;;
71095;SDS011;58753;49.440;11.126;2024-03-08T13:37:41;7.77;;;3.90;;
71095;SDS011;58753;49.440;11.126;2024-03-08T13:40:07;6.87;;;3.80;;
71095;SDS011;58753;49.440;11.126;2024-03-08T13:42:37;7.35;;;4.07;;
71095;SDS011;58753;49.440;11.126;2024-03-08T13:45:04;6.97;;;4.05;;
71095;SDS011;58753;49.440;11.126;2024-03-08T13:47:32;8.18;;;3.70;;
71095;SDS011;58753;49.440;11.126;2024-03-08T13:49:59;7.43;;;3.53;;
71095;SDS011;58753;49.440;11.126;2024-03-08T13:52:25;6.50;;;2.90;;
71095;SDS011;58753;49.440;11.126;2024-03-08T13:54:54;8.52;;;4.20;;
71095;SDS011;58753;49.440;11.126;2024-03-08T13:57:19;8.20;;;3.70;;
71095;SDS011;58753;49.440;11.126;2024-03-08T13:59:45;7.00;;;3.80;;
71095;SDS011;58753;49.440;11.126;2024-03-08T14:02:10;8.77;;;3.77;;
71095;SDS011;58753;49.440;11.126;2024-03-08T14:04:38;7.60;;;3.58;;
71095;SDS011;58753;49.440;11.126;2024-03-08T14:07:05;9.48;;;4.18;;
71095;SDS011;58753;49.440;11.126;2024-03-08T14:09:33;7.32;;;3.80;;
71095;SDS011;58753;49.440;11.126;2024-03-08T14:12:03;8.03;;;4.33;;
71095;SDS011;58753;49.440;11.126;2024-03-08T14:14:32;7.70;;;3.83;;
71095;SDS011;58753;49.440;11.126;2024-03-08T14:16:59;7.70;;;3.97;;
71095;SDS011;58753;49.440;11.126;2024-03-08T14:19:24;7.27;;;3.43;;
71095;SDS011;58753;49.440;11.126;2024-03-08T14:21:51;9.50;;;4.35;;
71095;SDS011;58753;49.440;11.126;2024-03-08T14:24:18;9.50;;;4.30;;
71095;SDS011;58753;49.440;11.126;2024-03-08T14:26:44;8.40;;;4.03;;
71095;SDS011;58753;49.440;11.126;2024-03-08T14:29:13;6.28;;;3.58;;
71095;SDS011;58753;49.440;11.126;2024-03-08T14:31:38;6.93;;;4.10;;
71095;SDS011;58753;49.440;11.126;2024-03-08T14:34:05;7.05;;;3.35;;
71095;SDS011;58753;49.440;11.126;2024-03-08T14:36:32;7.20;;;4.32;;
71095;SDS011;58753;49.440;11.126;2024-03-08T14:38:57;7.30;;;3.53;;
71095;SDS011;58753;49.440;11.126;2024-03-08T14:41:23;6.68;;;3.88;;
71095;SDS011;58753;49.440;11.126;2024-03-08T14:43:48;7.60;;;3.50;;